Ilyas Efendiyev — 9HES8 — position and weather

sailwx.info

Track history (hours):
 
Tides and Currents Weather Stations Pressure Air Temp Water Temp Dewpoint Dewpoint Depression Visibility Wind Speed Wind Dir Waves Ship Positions

Ilyas Efendiyev

Last reported at 2017-May-28 00:09 UTC. Time now 2017-May-28 10:28 UTC.
Position N 38°22' W 009°59'.

Length 140 m; draft 3.6 m.

Type: Cargo ship. MMSI: 215901000.

Date/timePositionNaut miles runAvg speedWind from/ knotsBaromVisibWave heightAir tempDewpointWater temp
2017-May-28 00:09N 38°22' W 009°59'4 7.4
2017-May-27 23:39N 38°26' W 010°00'1 7.4
2017-May-27 23:30N 38°27' W 010°00'4 7.5
2017-May-27 22:56N 38°31' W 010°01'3 7.7
2017-May-27 22:30N 38°34' W 010°02'4 7.5
2017-May-27 22:00N 38°38' W 010°03'4 7.3
2017-May-27 21:30N 38°42' W 010°05'4 7.4
2017-May-27 21:00N 38°45' W 010°05'4 7.6
2017-May-27 20:30N 38°49' W 010°05'4 7.5
2017-May-27 20:00N 38°53' W 010°04'4 7.6
2017-May-27 19:30N 38°56' W 010°02'4 8.1
2017-May-27 19:00N 39°00' W 009°60'4 7.9
2017-May-27 18:30N 39°04' W 009°58'4 7.0
2017-May-27 18:00N 39°07' W 009°56'4 7.2
2017-May-27 17:30N 39°10' W 009°54'3 6.9
2017-May-27 17:01N 39°13' W 009°52'4 7.4
2017-May-27 16:30N 39°17' W 009°51'4 7.2
2017-May-27 16:00N 39°20' W 009°49'  
2017-May-25 06:29N 41°18' W 008°51'26 9.7
2017-May-25 03:46N 41°41' W 009°09'379 7.4
2017-May-23 00:51N 45°51' W 002°35'3 8.3
2017-May-23 00:26N 45°52' W 002°30'4 8.3
2017-May-22 23:59N 45°54' W 002°26'5 8.3
2017-May-22 23:25N 45°56' W 002°20'3 8.4
2017-May-22 23:00N 45°58' W 002°15'5 8.5
2017-May-22 22:26N 45°60' W 002°09'4 8.6
2017-May-22 22:00N 46°01' W 002°04'4 8.6
2017-May-22 21:30N 46°03' W 001°58'4 8.8
2017-May-22 21:00N 46°05' W 001°52'8 8.9
2017-May-22 20:07N 46°08' W 001°42'1 8.6
2017-May-22 19:58N 46°08' W 001°40'5 9.1
2017-May-22 19:25N 46°07' W 001°33'4 9.5
2017-May-22 19:00N 46°07' W 001°27'5 9.9
2017-May-22 18:30N 46°06' W 001°20'4 7.7
2017-May-22 18:00N 46°08' W 001°15'2 3.4
2017-May-22 17:30N 46°09' W 001°14'0 0.0
2017-May-22 17:00N 46°09' W 001°14'0 0.0
2017-May-22 16:30N 46°09' W 001°14'0 0.0
2017-May-22 16:00N 46°09' W 001°14'0 0.0
2017-May-22 15:30N 46°09' W 001°14'0 0.0
2017-May-22 15:00N 46°09' W 001°14'0 0.0
2017-May-22 14:00N 46°09' W 001°14'0 0.0
2017-May-22 13:30N 46°09' W 001°14'0 0.0
2017-May-22 13:00N 46°09' W 001°14'0 0.0
2017-May-22 12:30N 46°09' W 001°14'0 0.0
2017-May-22 12:00N 46°09' W 001°14'0 0.0
2017-May-22 11:30N 46°09' W 001°14'0 0.0
2017-May-22 11:00N 46°09' W 001°14'0 0.0
2017-May-22 10:30N 46°09' W 001°14'0 0.0
2017-May-22 10:00N 46°09' W 001°14'0 0.0
2017-May-22 09:30N 46°09' W 001°14'0 0.0
2017-May-22 09:00N 46°09' W 001°14'0 0.0
2017-May-22 08:30N 46°09' W 001°14'0 0.0
2017-May-22 08:00N 46°09' W 001°14'0 0.0
2017-May-22 07:30N 46°09' W 001°14'0 0.0
2017-May-22 07:00N 46°09' W 001°14'0 0.0
2017-May-22 06:30N 46°09' W 001°14'0 0.0
2017-May-22 06:00N 46°09' W 001°14'0 0.0
2017-May-22 05:30N 46°09' W 001°14'0 0.0
2017-May-22 05:00N 46°09' W 001°14'0 0.0
2017-May-22 04:30N 46°09' W 001°14'0 0.0
2017-May-22 04:00N 46°09' W 001°14'0 0.0
2017-May-22 03:30N 46°09' W 001°14'0 0.0
2017-May-22 03:00N 46°09' W 001°14'0 0.0
2017-May-22 02:30N 46°09' W 001°14'0 0.0
2017-May-22 02:00N 46°09' W 001°14'0 0.0
2017-May-22 01:30N 46°09' W 001°14'0 0.0
2017-May-22 01:00N 46°09' W 001°14'0 0.0
2017-May-22 00:30N 46°09' W 001°14'0 0.0
2017-May-22 00:00N 46°09' W 001°14'0 0.0
2017-May-21 23:30N 46°09' W 001°14'0 0.0
2017-May-21 23:00N 46°09' W 001°14'0 0.0
2017-May-21 22:30N 46°09' W 001°14'0 0.0
2017-May-21 22:00N 46°09' W 001°14'0 0.0
2017-May-21 21:30N 46°09' W 001°14'0 0.0
2017-May-21 21:00N 46°09' W 001°14'0 0.0
2017-May-21 20:30N 46°09' W 001°14'0 0.0
2017-May-21 20:00N 46°09' W 001°14'0 0.0
2017-May-21 19:30N 46°09' W 001°14'0 0.0
2017-May-21 19:00N 46°09' W 001°14'0 0.0
2017-May-21 18:30N 46°09' W 001°14'0 0.0
2017-May-21 18:00N 46°09' W 001°14'0 0.0
2017-May-21 17:30N 46°09' W 001°14'0 0.0
2017-May-21 17:00N 46°09' W 001°14'0 0.0
2017-May-21 16:30N 46°09' W 001°14'0 0.0
2017-May-21 16:00N 46°09' W 001°14'0 0.0
2017-May-21 15:30N 46°09' W 001°14'0 0.0
2017-May-21 15:00N 46°09' W 001°14'0 0.0
2017-May-21 14:00N 46°09' W 001°14'0 0.0
2017-May-21 13:30N 46°09' W 001°14'0 0.0
2017-May-21 13:00N 46°09' W 001°14'0 0.0
2017-May-21 12:30N 46°09' W 001°14'0 0.0
2017-May-21 12:00N 46°09' W 001°14'0 0.0
2017-May-21 11:30N 46°09' W 001°14'0 0.0
2017-May-21 11:00N 46°09' W 001°14'0 0.0
2017-May-21 10:30N 46°09' W 001°14'0 0.0
2017-May-21 10:00N 46°09' W 001°14'0 0.3
2017-May-21 09:30N 46°09' W 001°14'3 6.8
2017-May-21 09:00N 46°06' W 001°15'1 2.4
2017-May-21 08:28N 46°05' W 001°14'0 0.1
2017-May-21 08:00N 46°05' W 001°14'0 0.0
2017-May-21 07:28N 46°05' W 001°14'0 0.0
2017-May-21 06:55N 46°05' W 001°14'0 0.1
2017-May-21 06:28N 46°05' W 001°14'0 0.0
2017-May-21 06:00N 46°05' W 001°14'0 0.1
2017-May-21 05:30N 46°05' W 001°14'0 0.0
2017-May-21 04:55N 46°05' W 001°14'0 0.0
2017-May-21 04:28N 46°05' W 001°14'0 0.0
2017-May-21 03:58N 46°05' W 001°14'0 0.0
2017-May-21 03:20N 46°05' W 001°14'0 0.0
2017-May-21 02:59N 46°05' W 001°14'0 0.0
2017-May-21 02:29N 46°05' W 001°14'0 0.0
2017-May-21 01:59N 46°05' W 001°14'0 0.0
2017-May-21 01:19N 46°05' W 001°14'0 0.2
2017-May-21 00:58N 46°05' W 001°14'0 0.2
2017-May-21 00:28N 46°05' W 001°13'0 0.0
2017-May-20 23:58N 46°05' W 001°13'0 0.0
2017-May-20 23:29N 46°05' W 001°13'0 0.0
2017-May-20 22:59N 46°05' W 001°13'0 0.0
2017-May-20 22:28N 46°05' W 001°13'0 0.0
2017-May-20 21:58N 46°05' W 001°13'0 0.0
2017-May-20 21:28N 46°05' W 001°13'0 0.0
2017-May-20 20:58N 46°05' W 001°13'0 0.0
2017-May-20 20:28N 46°05' W 001°13'0 0.0
2017-May-20 19:58N 46°05' W 001°13'0 0.0
2017-May-20 19:28N 46°05' W 001°13'0 0.0
2017-May-20 18:58N 46°05' W 001°13'0 0.0
2017-May-20 18:28N 46°05' W 001°13'0 0.0
2017-May-20 17:58N 46°05' W 001°13'0 0.0
2017-May-20 17:28N 46°05' W 001°13'0 0.0
2017-May-20 17:01N 46°05' W 001°13'0 0.1
2017-May-20 16:30N 46°05' W 001°13'3 5.6
2017-May-20 16:00N 46°06' W 001°17'5 9.3
2017-May-20 15:30N 46°07' W 001°24'12 9.4
2017-May-20 14:13N 46°10' W 001°41'710.1
2017-May-20 13:30N 46°14' W 001°49'510.1
2017-May-20 13:00N 46°18' W 001°55'510.1
2017-May-20 12:30N 46°21' W 002°01'510.3
2017-May-20 12:00N 46°24' W 002°07'510.3
2017-May-20 11:30N 46°27' W 002°13'13310.0
2017-May-19 22:12N 47°48' W 004°47'2 9.9
2017-May-19 22:01N 47°49' W 004°50'510.1
2017-May-19 21:31N 47°52' W 004°56'5 9.8
2017-May-19 21:01N 47°55' W 005°01'11 9.3
2017-May-19 19:48N 48°03' W 005°13'8 9.6
2017-May-19 18:58N 48°09' W 005°21'126 7.2
2017-May-19 01:37N 49°49' W 003°24'1 9.2
2017-May-19 01:31N 49°49' W 003°23'5 9.0
2017-May-19 01:00N 49°52' W 003°17'9 9.0
2017-May-19 00:00N 49°56' W 003°05'4 8.9
2017-May-18 23:31N 49°58' W 002°59'5 8.8
2017-May-18 22:59N 49°60' W 002°52'9910.1
2017-May-18 13:11N 50°24' W 000°22'1 8.4
2017-May-18 13:00N 50°25' W 000°20'4 8.6
2017-May-18 12:30N 50°26' W 000°14'5 9.0
2017-May-18 11:56N 50°27' W 000°06'4 9.2
2017-May-18 11:30N 50°28' E 000°00'5 9.7
2017-May-18 11:00N 50°29' E 000°08'510.1
2017-May-18 10:30N 50°30' E 000°15'1210.9
2017-May-18 09:25N 50°35' E 000°32'511.4
2017-May-18 09:00N 50°38' E 000°38'611.3
2017-May-18 08:29N 50°42' E 000°45'2210.6
2017-May-18 06:23N 50°56' E 001°12'4 9.5
2017-May-18 05:59N 50°59' E 001°17'4 9.1
2017-May-18 05:31N 51°02' E 001°22'4 8.6
2017-May-18 05:00N 51°04' E 001°27'4 8.4
2017-May-18 04:30N 51°07' E 001°32'4 8.5
2017-May-18 04:01N 51°10' E 001°37'4 8.7
2017-May-18 03:31N 51°13' E 001°43'4 8.9
2017-May-18 03:00N 51°16' E 001°48'5 9.7
2017-May-18 02:30N 51°20' E 001°52'510.2
2017-May-18 02:00N 51°24' E 001°58'5 9.6
2017-May-18 01:30N 51°24' E 002°05'510.0
2017-May-18 01:00N 51°22' E 002°13'510.4
2017-May-18 00:30N 51°21' E 002°21'  
Track history (hours):
 
Tides and Currents Weather Stations Pressure Air Temp Water Temp Dewpoint Dewpoint Depression Visibility Wind Speed Wind Dir Waves Ship Positions

Ilyas Efendiyev

Last reported at 2017-May-28 00:09 UTC. Time now 2017-May-28 10:28 UTC.
Position N 38°22' W 009°59'.

Length 140 m; draft 3.6 m.

Type: Cargo ship. MMSI: 215901000.

Date/timePositionNaut miles runAvg speedWind from/ knotsBaromVisibWave heightAir tempDewpointWater temp
2017-May-28 00:09N 38°22' W 009°59'4 7.4
2017-May-27 23:39N 38°26' W 010°00'1 7.4
2017-May-27 23:30N 38°27' W 010°00'4 7.5
2017-May-27 22:56N 38°31' W 010°01'3 7.7
2017-May-27 22:30N 38°34' W 010°02'4 7.5
2017-May-27 22:00N 38°38' W 010°03'4 7.3
2017-May-27 21:30N 38°42' W 010°05'4 7.4
2017-May-27 21:00N 38°45' W 010°05'4 7.6
2017-May-27 20:30N 38°49' W 010°05'4 7.5
2017-May-27 20:00N 38°53' W 010°04'4 7.6
2017-May-27 19:30N 38°56' W 010°02'4 8.1
2017-May-27 19:00N 39°00' W 009°60'4 7.9
2017-May-27 18:30N 39°04' W 009°58'4 7.0
2017-May-27 18:00N 39°07' W 009°56'4 7.2
2017-May-27 17:30N 39°10' W 009°54'3 6.9
2017-May-27 17:01N 39°13' W 009°52'4 7.4
2017-May-27 16:30N 39°17' W 009°51'4 7.2
2017-May-27 16:00N 39°20' W 009°49'  
2017-May-25 06:29N 41°18' W 008°51'26 9.7
2017-May-25 03:46N 41°41' W 009°09'379 7.4
2017-May-23 00:51N 45°51' W 002°35'3 8.3
2017-May-23 00:26N 45°52' W 002°30'4 8.3
2017-May-22 23:59N 45°54' W 002°26'5 8.3
2017-May-22 23:25N 45°56' W 002°20'3 8.4
2017-May-22 23:00N 45°58' W 002°15'5 8.5
2017-May-22 22:26N 45°60' W 002°09'4 8.6
2017-May-22 22:00N 46°01' W 002°04'4 8.6
2017-May-22 21:30N 46°03' W 001°58'4 8.8
2017-May-22 21:00N 46°05' W 001°52'8 8.9
2017-May-22 20:07N 46°08' W 001°42'1 8.6
2017-May-22 19:58N 46°08' W 001°40'5 9.1
2017-May-22 19:25N 46°07' W 001°33'4 9.5
2017-May-22 19:00N 46°07' W 001°27'5 9.9
2017-May-22 18:30N 46°06' W 001°20'4 7.7
2017-May-22 18:00N 46°08' W 001°15'2 3.4
2017-May-22 17:30N 46°09' W 001°14'0 0.0
2017-May-22 17:00N 46°09' W 001°14'0 0.0
2017-May-22 16:30N 46°09' W 001°14'0 0.0
2017-May-22 16:00N 46°09' W 001°14'0 0.0
2017-May-22 15:30N 46°09' W 001°14'0 0.0
2017-May-22 15:00N 46°09' W 001°14'0 0.0
2017-May-22 14:00N 46°09' W 001°14'0 0.0
2017-May-22 13:30N 46°09' W 001°14'0 0.0
2017-May-22 13:00N 46°09' W 001°14'0 0.0
2017-May-22 12:30N 46°09' W 001°14'0 0.0
2017-May-22 12:00N 46°09' W 001°14'0 0.0
2017-May-22 11:30N 46°09' W 001°14'0 0.0
2017-May-22 11:00N 46°09' W 001°14'0 0.0
2017-May-22 10:30N 46°09' W 001°14'0 0.0
2017-May-22 10:00N 46°09' W 001°14'0 0.0
2017-May-22 09:30N 46°09' W 001°14'0 0.0
2017-May-22 09:00N 46°09' W 001°14'0 0.0
2017-May-22 08:30N 46°09' W 001°14'0 0.0
2017-May-22 08:00N 46°09' W 001°14'0 0.0
2017-May-22 07:30N 46°09' W 001°14'0 0.0
2017-May-22 07:00N 46°09' W 001°14'0 0.0
2017-May-22 06:30N 46°09' W 001°14'0 0.0
2017-May-22 06:00N 46°09' W 001°14'0 0.0
2017-May-22 05:30N 46°09' W 001°14'0 0.0
2017-May-22 05:00N 46°09' W 001°14'0 0.0
2017-May-22 04:30N 46°09' W 001°14'0 0.0
2017-May-22 04:00N 46°09' W 001°14'0 0.0
2017-May-22 03:30N 46°09' W 001°14'0 0.0
2017-May-22 03:00N 46°09' W 001°14'0 0.0
2017-May-22 02:30N 46°09' W 001°14'0 0.0
2017-May-22 02:00N 46°09' W 001°14'0 0.0
2017-May-22 01:30N 46°09' W 001°14'0 0.0
2017-May-22 01:00N 46°09' W 001°14'0 0.0
2017-May-22 00:30N 46°09' W 001°14'0 0.0
2017-May-22 00:00N 46°09' W 001°14'0 0.0
2017-May-21 23:30N 46°09' W 001°14'0 0.0
2017-May-21 23:00N 46°09' W 001°14'0 0.0
2017-May-21 22:30N 46°09' W 001°14'0 0.0
2017-May-21 22:00N 46°09' W 001°14'0 0.0
2017-May-21 21:30N 46°09' W 001°14'0 0.0
2017-May-21 21:00N 46°09' W 001°14'0 0.0
2017-May-21 20:30N 46°09' W 001°14'0 0.0
2017-May-21 20:00N 46°09' W 001°14'0 0.0
2017-May-21 19:30N 46°09' W 001°14'0 0.0
2017-May-21 19:00N 46°09' W 001°14'0 0.0
2017-May-21 18:30N 46°09' W 001°14'0 0.0
2017-May-21 18:00N 46°09' W 001°14'0 0.0
2017-May-21 17:30N 46°09' W 001°14'0 0.0
2017-May-21 17:00N 46°09' W 001°14'0 0.0
2017-May-21 16:30N 46°09' W 001°14'0 0.0
2017-May-21 16:00N 46°09' W 001°14'0 0.0
2017-May-21 15:30N 46°09' W 001°14'0 0.0
2017-May-21 15:00N 46°09' W 001°14'0 0.0
2017-May-21 14:00N 46°09' W 001°14'0 0.0
2017-May-21 13:30N 46°09' W 001°14'0 0.0
2017-May-21 13:00N 46°09' W 001°14'0 0.0
2017-May-21 12:30N 46°09' W 001°14'0 0.0
2017-May-21 12:00N 46°09' W 001°14'0 0.0
2017-May-21 11:30N 46°09' W 001°14'0 0.0
2017-May-21 11:00N 46°09' W 001°14'0 0.0
2017-May-21 10:30N 46°09' W 001°14'0 0.0
2017-May-21 10:00N 46°09' W 001°14'0 0.3
2017-May-21 09:30N 46°09' W 001°14'3 6.8
2017-May-21 09:00N 46°06' W 001°15'1 2.4
2017-May-21 08:28N 46°05' W 001°14'0 0.1
2017-May-21 08:00N 46°05' W 001°14'0 0.0
2017-May-21 07:28N 46°05' W 001°14'0 0.0
2017-May-21 06:55N 46°05' W 001°14'0 0.1
2017-May-21 06:28N 46°05' W 001°14'0 0.0
2017-May-21 06:00N 46°05' W 001°14'0 0.1
2017-May-21 05:30N 46°05' W 001°14'0 0.0
2017-May-21 04:55N 46°05' W 001°14'0 0.0
2017-May-21 04:28N 46°05' W 001°14'0 0.0
2017-May-21 03:58N 46°05' W 001°14'0 0.0
2017-May-21 03:20N 46°05' W 001°14'0 0.0
2017-May-21 02:59N 46°05' W 001°14'0 0.0
2017-May-21 02:29N 46°05' W 001°14'0 0.0
2017-May-21 01:59N 46°05' W 001°14'0 0.0
2017-May-21 01:19N 46°05' W 001°14'0 0.2
2017-May-21 00:58N 46°05' W 001°14'0 0.2
2017-May-21 00:28N 46°05' W 001°13'0 0.0
2017-May-20 23:58N 46°05' W 001°13'0 0.0
2017-May-20 23:29N 46°05' W 001°13'0 0.0
2017-May-20 22:59N 46°05' W 001°13'0 0.0
2017-May-20 22:28N 46°05' W 001°13'0 0.0
2017-May-20 21:58N 46°05' W 001°13'0 0.0
2017-May-20 21:28N 46°05' W 001°13'0 0.0
2017-May-20 20:58N 46°05' W 001°13'0 0.0
2017-May-20 20:28N 46°05' W 001°13'0 0.0
2017-May-20 19:58N 46°05' W 001°13'0 0.0
2017-May-20 19:28N 46°05' W 001°13'0 0.0
2017-May-20 18:58N 46°05' W 001°13'0 0.0
2017-May-20 18:28N 46°05' W 001°13'0 0.0
2017-May-20 17:58N 46°05' W 001°13'0 0.0
2017-May-20 17:28N 46°05' W 001°13'0 0.0
2017-May-20 17:01N 46°05' W 001°13'0 0.1
2017-May-20 16:30N 46°05' W 001°13'3 5.6
2017-May-20 16:00N 46°06' W 001°17'5 9.3
2017-May-20 15:30N 46°07' W 001°24'12 9.4
2017-May-20 14:13N 46°10' W 001°41'710.1
2017-May-20 13:30N 46°14' W 001°49'510.1
2017-May-20 13:00N 46°18' W 001°55'510.1
2017-May-20 12:30N 46°21' W 002°01'510.3
2017-May-20 12:00N 46°24' W 002°07'510.3
2017-May-20 11:30N 46°27' W 002°13'13310.0
2017-May-19 22:12N 47°48' W 004°47'2 9.9
2017-May-19 22:01N 47°49' W 004°50'510.1
2017-May-19 21:31N 47°52' W 004°56'5 9.8
2017-May-19 21:01N 47°55' W 005°01'11 9.3
2017-May-19 19:48N 48°03' W 005°13'8 9.6
2017-May-19 18:58N 48°09' W 005°21'126 7.2
2017-May-19 01:37N 49°49' W 003°24'1 9.2
2017-May-19 01:31N 49°49' W 003°23'5 9.0
2017-May-19 01:00N 49°52' W 003°17'9 9.0
2017-May-19 00:00N 49°56' W 003°05'4 8.9
2017-May-18 23:31N 49°58' W 002°59'5 8.8
2017-May-18 22:59N 49°60' W 002°52'9910.1
2017-May-18 13:11N 50°24' W 000°22'1 8.4
2017-May-18 13:00N 50°25' W 000°20'4 8.6
2017-May-18 12:30N 50°26' W 000°14'5 9.0
2017-May-18 11:56N 50°27' W 000°06'4 9.2
2017-May-18 11:30N 50°28' E 000°00'5 9.7
2017-May-18 11:00N 50°29' E 000°08'510.1
2017-May-18 10:30N 50°30' E 000°15'1210.9
2017-May-18 09:25N 50°35' E 000°32'511.4
2017-May-18 09:00N 50°38' E 000°38'611.3
2017-May-18 08:29N 50°42' E 000°45'2210.6
2017-May-18 06:23N 50°56' E 001°12'4 9.5
2017-May-18 05:59N 50°59' E 001°17'4 9.1
2017-May-18 05:31N 51°02' E 001°22'4 8.6
2017-May-18 05:00N 51°04' E 001°27'4 8.4
2017-May-18 04:30N 51°07' E 001°32'4 8.5
2017-May-18 04:01N 51°10' E 001°37'4 8.7
2017-May-18 03:31N 51°13' E 001°43'4 8.9
2017-May-18 03:00N 51°16' E 001°48'5 9.7
2017-May-18 02:30N 51°20' E 001°52'510.2
2017-May-18 02:00N 51°24' E 001°58'5 9.6
2017-May-18 01:30N 51°24' E 002°05'510.0
2017-May-18 01:00N 51°22' E 002°13'510.4
2017-May-18 00:30N 51°21' E 002°21'  

Dump ship's entire track history